Terminal Aerodrome Forecast
Issued by NWS

Home | Current Version | Previous Version | Text Only | Print | Product List | Glossary On
Versions: 1 2 3 4 5 6 7 8 9 10 11 12 13 14 15 16 17 18 19 20 21 22 23
000
FTUS46 KOTX 072320
TAFPUW
TAF
KPUW 072320Z 0800/0824 13005KT P6SM SKC
     FM080300 10010KT P6SM FEW250
     FM081400 09014G20KT P6SM BKN200
     FM082200 09009KT P6SM BKN120 OVC200=

USA.gov is the U.S. government's official web portal to all federal, state and local government web resources and services.